sensor_id;sensor_type;location;lat;lon;timestamp;pressure;altitude;pressure_sealevel;temperature;humidity
82887;BME280;72660;51.258;-2.200;2024-02-14T00:01:50;100311.81;;;12.37;59.04
82887;BME280;72660;51.258;-2.200;2024-02-14T00:04:15;100312.40;;;12.71;58.33
82887;BME280;72660;51.258;-2.200;2024-02-14T00:06:40;100310.69;;;12.91;57.95
82887;BME280;72660;51.258;-2.200;2024-02-14T00:09:06;100308.49;;;12.78;57.82
82887;BME280;72660;51.258;-2.200;2024-02-14T00:11:31;100309.73;;;13.22;56.92
82887;BME280;72660;51.258;-2.200;2024-02-14T00:13:56;100306.60;;;13.27;56.88
82887;BME280;72660;51.258;-2.200;2024-02-14T00:16:22;100306.18;;;13.29;56.78
82887;BME280;72660;51.258;-2.200;2024-02-14T00:18:47;100300.91;;;13.18;57.62
82887;BME280;72660;51.258;-2.200;2024-02-14T00:21:12;100306.42;;;13.07;57.22
82887;BME280;72660;51.258;-2.200;2024-02-14T00:23:37;100302.14;;;12.98;57.65
82887;BME280;72660;51.258;-2.200;2024-02-14T00:26:03;100308.48;;;13.19;57.42
82887;BME280;72660;51.258;-2.200;2024-02-14T00:28:29;100300.34;;;12.60;58.07
82887;BME280;72660;51.258;-2.200;2024-02-14T00:30:54;100299.26;;;13.03;57.14
82887;BME280;72660;51.258;-2.200;2024-02-14T00:33:19;100299.15;;;13.02;57.68
82887;BME280;72660;51.258;-2.200;2024-02-14T00:35:45;100299.54;;;12.84;58.16
82887;BME280;72660;51.258;-2.200;2024-02-14T00:38:10;100299.12;;;13.06;56.92
82887;BME280;72660;51.258;-2.200;2024-02-14T00:40:35;100300.98;;;13.08;57.42
82887;BME280;72660;51.258;-2.200;2024-02-14T00:43:00;100296.82;;;12.76;58.14
82887;BME280;72660;51.258;-2.200;2024-02-14T00:45:26;100299.73;;;13.17;57.34
82887;BME280;72660;51.258;-2.200;2024-02-14T00:47:52;100304.55;;;13.32;57.03
82887;BME280;72660;51.258;-2.200;2024-02-14T00:50:17;100311.70;;;13.23;56.64
82887;BME280;72660;51.258;-2.200;2024-02-14T00:52:42;100306.63;;;13.21;57.20
82887;BME280;72660;51.258;-2.200;2024-02-14T00:55:08;100303.91;;;13.39;56.93
82887;BME280;72660;51.258;-2.200;2024-02-14T00:57:32;100307.10;;;13.09;57.03
82887;BME280;72660;51.258;-2.200;2024-02-14T00:59:58;100307.06;;;12.79;57.92
82887;BME280;72660;51.258;-2.200;2024-02-14T01:02:24;100311.09;;;12.76;58.97
82887;BME280;72660;51.258;-2.200;2024-02-14T01:04:48;100305.24;;;12.10;60.58
82887;BME280;72660;51.258;-2.200;2024-02-14T01:07:14;100303.81;;;12.17;61.22
82887;BME280;72660;51.258;-2.200;2024-02-14T01:09:39;100304.52;;;11.75;62.30
82887;BME280;72660;51.258;-2.200;2024-02-14T01:12:05;100303.65;;;12.21;61.57
82887;BME280;72660;51.258;-2.200;2024-02-14T01:14:30;100295.03;;;11.41;62.67
82887;BME280;72660;51.258;-2.200;2024-02-14T01:16:55;100297.49;;;12.10;61.90
82887;BME280;72660;51.258;-2.200;2024-02-14T01:19:21;100296.74;;;11.96;61.66
82887;BME280;72660;51.258;-2.200;2024-02-14T01:21:46;100296.89;;;11.71;62.32
82887;BME280;72660;51.258;-2.200;2024-02-14T01:24:12;100288.79;;;12.14;61.34
82887;BME280;72660;51.258;-2.200;2024-02-14T01:26:37;100284.52;;;11.91;62.26
82887;BME280;72660;51.258;-2.200;2024-02-14T01:29:03;100287.32;;;11.86;62.55
82887;BME280;72660;51.258;-2.200;2024-02-14T01:31:27;100283.90;;;12.12;61.39
82887;BME280;72660;51.258;-2.200;2024-02-14T01:33:53;100277.77;;;12.09;61.99
82887;BME280;72660;51.258;-2.200;2024-02-14T01:36:18;100276.58;;;11.86;62.29
82887;BME280;72660;51.258;-2.200;2024-02-14T01:38:43;100269.80;;;11.55;63.26
82887;BME280;72660;51.258;-2.200;2024-02-14T01:41:09;100271.57;;;12.17;61.09
82887;BME280;72660;51.258;-2.200;2024-02-14T01:43:34;100275.66;;;11.46;62.55
82887;BME280;72660;51.258;-2.200;2024-02-14T01:46:05;100275.90;;;11.77;62.73
82887;BME280;72660;51.258;-2.200;2024-02-14T01:48:24;100275.20;;;11.92;62.18
82887;BME280;72660;51.258;-2.200;2024-02-14T01:50:50;100274.94;;;11.97;61.52
82887;BME280;72660;51.258;-2.200;2024-02-14T01:53:15;100275.21;;;12.20;61.63
82887;BME280;72660;51.258;-2.200;2024-02-14T01:55:41;100277.97;;;11.60;62.85
82887;BME280;72660;51.258;-2.200;2024-02-14T01:58:06;100283.44;;;11.13;64.00
82887;BME280;72660;51.258;-2.200;2024-02-14T02:00:31;100285.03;;;11.52;63.19
82887;BME280;72660;51.258;-2.200;2024-02-14T02:02:56;100289.81;;;11.27;63.87
82887;BME280;72660;51.258;-2.200;2024-02-14T02:05:22;100298.89;;;11.52;63.38
82887;BME280;72660;51.258;-2.200;2024-02-14T02:07:47;100300.90;;;11.64;63.43
82887;BME280;72660;51.258;-2.200;2024-02-14T02:10:13;100294.92;;;11.39;63.29
82887;BME280;72660;51.258;-2.200;2024-02-14T02:12:38;100291.17;;;11.80;63.24
82887;BME280;72660;51.258;-2.200;2024-02-14T02:15:04;100284.96;;;12.21;62.33
82887;BME280;72660;51.258;-2.200;2024-02-14T02:17:29;100279.18;;;11.72;63.20
82887;BME280;72660;51.258;-2.200;2024-02-14T02:19:54;100269.48;;;12.04;62.35
82887;BME280;72660;51.258;-2.200;2024-02-14T02:22:19;100270.71;;;11.43;63.16
82887;BME280;72660;51.258;-2.200;2024-02-14T02:24:44;100261.48;;;11.49;62.99
82887;BME280;72660;51.258;-2.200;2024-02-14T02:27:10;100260.21;;;11.47;63.67
82887;BME280;72660;51.258;-2.200;2024-02-14T02:29:36;100258.43;;;11.09;64.49
82887;BME280;72660;51.258;-2.200;2024-02-14T02:32:01;100260.34;;;10.87;65.67
82887;BME280;72660;51.258;-2.200;2024-02-14T02:34:26;100275.29;;;11.50;64.75
82887;BME280;72660;51.258;-2.200;2024-02-14T02:36:52;100269.72;;;11.11;64.70
82887;BME280;72660;51.258;-2.200;2024-02-14T02:39:17;100263.85;;;11.42;64.53
82887;BME280;72660;51.258;-2.200;2024-02-14T02:41:43;100257.15;;;11.14;65.00
82887;BME280;72660;51.258;-2.200;2024-02-14T02:44:08;100259.03;;;11.96;62.93
82887;BME280;72660;51.258;-2.200;2024-02-14T02:46:33;100258.73;;;11.63;63.12
82887;BME280;72660;51.258;-2.200;2024-02-14T02:48:58;100256.33;;;12.26;61.94
82887;BME280;72660;51.258;-2.200;2024-02-14T02:51:24;100256.52;;;12.02;62.45
82887;BME280;72660;51.258;-2.200;2024-02-14T02:53:49;100257.66;;;11.72;63.20
82887;BME280;72660;51.258;-2.200;2024-02-14T02:56:14;100258.84;;;11.59;63.09
82887;BME280;72660;51.258;-2.200;2024-02-14T02:58:40;100256.53;;;11.94;62.71
82887;BME280;72660;51.258;-2.200;2024-02-14T03:01:07;100259.85;;;11.97;62.24
82887;BME280;72660;51.258;-2.200;2024-02-14T03:03:30;100254.01;;;11.65;62.92
82887;BME280;72660;51.258;-2.200;2024-02-14T03:05:56;100256.61;;;12.39;61.29
82887;BME280;72660;51.258;-2.200;2024-02-14T03:08:21;100257.48;;;12.23;61.60
82887;BME280;72660;51.258;-2.200;2024-02-14T03:10:46;100264.62;;;11.98;62.26
82887;BME280;72660;51.258;-2.200;2024-02-14T03:13:11;100271.70;;;12.23;62.10
82887;BME280;72660;51.258;-2.200;2024-02-14T03:15:37;100263.41;;;12.15;61.79
82887;BME280;72660;51.258;-2.200;2024-02-14T03:18:02;100256.79;;;12.20;62.30
82887;BME280;72660;51.258;-2.200;2024-02-14T03:20:27;100251.12;;;12.51;61.12
82887;BME280;72660;51.258;-2.200;2024-02-14T03:22:53;100254.28;;;12.26;61.49
82887;BME280;72660;51.258;-2.200;2024-02-14T03:25:19;100261.41;;;12.40;61.76
82887;BME280;72660;51.258;-2.200;2024-02-14T03:27:43;100262.19;;;12.70;60.54
82887;BME280;72660;51.258;-2.200;2024-02-14T03:30:09;100259.84;;;12.13;61.85
82887;BME280;72660;51.258;-2.200;2024-02-14T03:32:34;100255.82;;;12.17;61.60
82887;BME280;72660;51.258;-2.200;2024-02-14T03:34:59;100257.74;;;12.13;61.69
82887;BME280;72660;51.258;-2.200;2024-02-14T03:37:24;100264.83;;;12.18;61.73
82887;BME280;72660;51.258;-2.200;2024-02-14T03:39:50;100261.66;;;12.24;61.38
82887;BME280;72660;51.258;-2.200;2024-02-14T03:42:15;100265.04;;;12.61;60.63
82887;BME280;72660;51.258;-2.200;2024-02-14T03:44:40;100264.61;;;12.77;60.19
82887;BME280;72660;51.258;-2.200;2024-02-14T03:47:06;100269.18;;;12.54;60.02
82887;BME280;72660;51.258;-2.200;2024-02-14T03:49:31;100269.73;;;12.75;59.67
82887;BME280;72660;51.258;-2.200;2024-02-14T03:51:56;100263.39;;;12.28;61.13
82887;BME280;72660;51.258;-2.200;2024-02-14T03:54:22;100257.43;;;12.52;61.23
82887;BME280;72660;51.258;-2.200;2024-02-14T03:56:47;100258.33;;;12.36;61.50
82887;BME280;72660;51.258;-2.200;2024-02-14T03:59:12;100256.03;;;12.53;61.53
82887;BME280;72660;51.258;-2.200;2024-02-14T04:01:37;100256.90;;;12.62;61.23
82887;BME280;72660;51.258;-2.200;2024-02-14T04:04:02;100255.87;;;12.05;62.45
82887;BME280;72660;51.258;-2.200;2024-02-14T04:06:28;100253.24;;;12.57;61.15
82887;BME280;72660;51.258;-2.200;2024-02-14T04:08:53;100249.24;;;12.03;62.69
82887;BME280;72660;51.258;-2.200;2024-02-14T04:11:18;100249.37;;;12.25;62.78
82887;BME280;72660;51.258;-2.200;2024-02-14T04:13:43;100250.49;;;12.23;62.44
82887;BME280;72660;51.258;-2.200;2024-02-14T04:16:09;100256.61;;;12.14;62.16
82887;BME280;72660;51.258;-2.200;2024-02-14T04:18:35;100245.84;;;11.74;63.73
82887;BME280;72660;51.258;-2.200;2024-02-14T04:21:00;100246.42;;;12.16;63.39
82887;BME280;72660;51.258;-2.200;2024-02-14T04:23:25;100244.17;;;11.83;63.43
82887;BME280;72660;51.258;-2.200;2024-02-14T04:25:51;100247.64;;;12.22;63.59
82887;BME280;72660;51.258;-2.200;2024-02-14T04:28:16;100249.81;;;12.44;62.99
82887;BME280;72660;51.258;-2.200;2024-02-14T04:30:41;100254.11;;;12.33;62.80
82887;BME280;72660;51.258;-2.200;2024-02-14T04:33:06;100247.69;;;12.00;63.86
82887;BME280;72660;51.258;-2.200;2024-02-14T04:35:31;100248.86;;;12.02;64.02
82887;BME280;72660;51.258;-2.200;2024-02-14T04:37:57;100265.68;;;11.78;63.92
82887;BME280;72660;51.258;-2.200;2024-02-14T04:40:22;100269.26;;;12.09;63.41
82887;BME280;72660;51.258;-2.200;2024-02-14T04:42:47;100275.35;;;11.99;63.45
82887;BME280;72660;51.258;-2.200;2024-02-14T04:45:14;100279.45;;;13.01;61.93
82887;BME280;72660;51.258;-2.200;2024-02-14T04:47:39;100276.86;;;12.48;62.65
82887;BME280;72660;51.258;-2.200;2024-02-14T04:50:05;100279.01;;;12.84;61.79
82887;BME280;72660;51.258;-2.200;2024-02-14T04:52:29;100283.35;;;12.74;61.55
82887;BME280;72660;51.258;-2.200;2024-02-14T04:54:55;100281.64;;;12.87;62.48
82887;BME280;72660;51.258;-2.200;2024-02-14T04:57:20;100284.40;;;12.89;61.90
82887;BME280;72660;51.258;-2.200;2024-02-14T04:59:46;100275.45;;;12.68;62.53
82887;BME280;72660;51.258;-2.200;2024-02-14T05:02:11;100278.04;;;12.45;63.00
82887;BME280;72660;51.258;-2.200;2024-02-14T05:04:36;100273.59;;;12.20;63.05
82887;BME280;72660;51.258;-2.200;2024-02-14T05:07:02;100272.46;;;12.78;62.72
82887;BME280;72660;51.258;-2.200;2024-02-14T05:09:27;100284.25;;;12.39;63.17
82887;BME280;72660;51.258;-2.200;2024-02-14T05:11:52;100269.25;;;12.62;62.60
82887;BME280;72660;51.258;-2.200;2024-02-14T05:14:17;100269.86;;;13.07;62.21
82887;BME280;72660;51.258;-2.200;2024-02-14T05:16:43;100269.04;;;12.28;63.53
82887;BME280;72660;51.258;-2.200;2024-02-14T05:19:08;100275.84;;;12.93;62.09
82887;BME280;72660;51.258;-2.200;2024-02-14T05:21:33;100279.02;;;12.89;61.39
82887;BME280;72660;51.258;-2.200;2024-02-14T05:23:58;100279.25;;;12.44;63.01
82887;BME280;72660;51.258;-2.200;2024-02-14T05:26:24;100277.77;;;12.77;61.64
82887;BME280;72660;51.258;-2.200;2024-02-14T05:28:49;100270.90;;;12.84;61.39
82887;BME280;72660;51.258;-2.200;2024-02-14T05:31:14;100267.86;;;13.36;60.72
82887;BME280;72660;51.258;-2.200;2024-02-14T05:33:40;100267.70;;;13.03;61.56
82887;BME280;72660;51.258;-2.200;2024-02-14T05:36:06;100269.32;;;13.53;59.86
82887;BME280;72660;51.258;-2.200;2024-02-14T05:38:30;100270.51;;;12.91;61.24
82887;BME280;72660;51.258;-2.200;2024-02-14T05:40:55;100270.62;;;13.01;61.79
82887;BME280;72660;51.258;-2.200;2024-02-14T05:43:21;100273.73;;;12.29;63.21
82887;BME280;72660;51.258;-2.200;2024-02-14T05:45:46;100277.45;;;12.75;62.77
82887;BME280;72660;51.258;-2.200;2024-02-14T05:48:11;100281.25;;;12.24;62.94
82887;BME280;72660;51.258;-2.200;2024-02-14T05:50:37;100275.23;;;12.69;62.42
82887;BME280;72660;51.258;-2.200;2024-02-14T05:53:03;100272.40;;;13.02;62.15
82887;BME280;72660;51.258;-2.200;2024-02-14T05:55:27;100265.13;;;12.86;62.42
82887;BME280;72660;51.258;-2.200;2024-02-14T05:57:53;100265.82;;;12.96;62.40
82887;BME280;72660;51.258;-2.200;2024-02-14T06:00:18;100257.27;;;12.34;63.00
82887;BME280;72660;51.258;-2.200;2024-02-14T06:02:43;100262.73;;;12.65;63.18
82887;BME280;72660;51.258;-2.200;2024-02-14T06:05:09;100262.42;;;13.02;62.33
82887;BME280;72660;51.258;-2.200;2024-02-14T06:07:34;100260.78;;;12.96;61.79
82887;BME280;72660;51.258;-2.200;2024-02-14T06:09:59;100263.35;;;13.02;61.96
82887;BME280;72660;51.258;-2.200;2024-02-14T06:12:24;100275.20;;;12.59;62.48
82887;BME280;72660;51.258;-2.200;2024-02-14T06:14:50;100271.38;;;12.47;63.34
82887;BME280;72660;51.258;-2.200;2024-02-14T06:17:15;100277.35;;;12.62;62.99
82887;BME280;72660;51.258;-2.200;2024-02-14T06:19:40;100272.10;;;12.02;64.79
82887;BME280;72660;51.258;-2.200;2024-02-14T06:22:05;100275.44;;;12.16;63.98
82887;BME280;72660;51.258;-2.200;2024-02-14T06:24:31;100273.19;;;12.67;63.64
82887;BME280;72660;51.258;-2.200;2024-02-14T06:26:56;100272.83;;;12.00;64.64
82887;BME280;72660;51.258;-2.200;2024-02-14T06:29:21;100280.07;;;12.42;63.75
82887;BME280;72660;51.258;-2.200;2024-02-14T06:31:46;100281.08;;;12.55;63.73
82887;BME280;72660;51.258;-2.200;2024-02-14T06:34:12;100285.62;;;12.71;63.00
82887;BME280;72660;51.258;-2.200;2024-02-14T06:36:37;100287.53;;;12.13;63.77
82887;BME280;72660;51.258;-2.200;2024-02-14T06:39:03;100285.77;;;12.44;63.37
82887;BME280;72660;51.258;-2.200;2024-02-14T06:41:28;100285.79;;;12.71;63.60
82887;BME280;72660;51.258;-2.200;2024-02-14T06:43:53;100286.20;;;12.40;63.18
82887;BME280;72660;51.258;-2.200;2024-02-14T06:46:18;100282.26;;;12.79;62.28
82887;BME280;72660;51.258;-2.200;2024-02-14T06:48:44;100276.16;;;12.79;62.70
82887;BME280;72660;51.258;-2.200;2024-02-14T06:51:09;100279.76;;;12.60;63.36
82887;BME280;72660;51.258;-2.200;2024-02-14T06:53:34;100287.41;;;12.48;63.76
82887;BME280;72660;51.258;-2.200;2024-02-14T06:55:59;100275.42;;;12.20;64.11
82887;BME280;72660;51.258;-2.200;2024-02-14T06:58:25;100277.31;;;12.55;63.19
82887;BME280;72660;51.258;-2.200;2024-02-14T07:00:50;100268.59;;;12.18;65.42
82887;BME280;72660;51.258;-2.200;2024-02-14T07:03:15;100271.78;;;11.73;66.25
82887;BME280;72660;51.258;-2.200;2024-02-14T07:05:41;100278.71;;;12.40;64.59
82887;BME280;72660;51.258;-2.200;2024-02-14T07:08:06;100289.93;;;12.13;65.22
82887;BME280;72660;51.258;-2.200;2024-02-14T07:10:31;100286.52;;;12.46;64.64
82887;BME280;72660;51.258;-2.200;2024-02-14T07:12:56;100278.95;;;12.00;65.73
82887;BME280;72660;51.258;-2.200;2024-02-14T07:15:22;100286.00;;;12.20;66.47
82887;BME280;72660;51.258;-2.200;2024-02-14T07:17:47;100297.59;;;12.39;65.28
82887;BME280;72660;51.258;-2.200;2024-02-14T07:20:12;100300.08;;;12.70;64.73
82887;BME280;72660;51.258;-2.200;2024-02-14T07:22:38;100300.20;;;12.54;65.02
82887;BME280;72660;51.258;-2.200;2024-02-14T07:25:03;100296.03;;;12.38;65.04
82887;BME280;72660;51.258;-2.200;2024-02-14T07:27:28;100304.65;;;12.12;65.51
82887;BME280;72660;51.258;-2.200;2024-02-14T07:29:53;100311.67;;;13.14;63.69
82887;BME280;72660;51.258;-2.200;2024-02-14T07:32:19;100313.37;;;13.27;62.43
82887;BME280;72660;51.258;-2.200;2024-02-14T07:34:44;100318.62;;;13.14;62.99
82887;BME280;72660;51.258;-2.200;2024-02-14T07:37:09;100324.01;;;13.57;61.62
82887;BME280;72660;51.258;-2.200;2024-02-14T07:39:35;100323.98;;;13.36;62.15
82887;BME280;72660;51.258;-2.200;2024-02-14T07:42:00;100314.45;;;13.29;62.30
82887;BME280;72660;51.258;-2.200;2024-02-14T07:44:25;100314.23;;;13.29;62.47
82887;BME280;72660;51.258;-2.200;2024-02-14T07:46:51;100312.04;;;13.08;63.59
82887;BME280;72660;51.258;-2.200;2024-02-14T07:49:16;100310.70;;;13.09;63.92
82887;BME280;72660;51.258;-2.200;2024-02-14T07:51:41;100314.37;;;12.74;63.95
82887;BME280;72660;51.258;-2.200;2024-02-14T07:54:07;100323.92;;;12.83;63.85
82887;BME280;72660;51.258;-2.200;2024-02-14T07:56:32;100322.33;;;12.66;64.99
82887;BME280;72660;51.258;-2.200;2024-02-14T07:58:57;100325.45;;;12.56;64.62
82887;BME280;72660;51.258;-2.200;2024-02-14T08:01:22;100320.18;;;12.91;64.56
82887;BME280;72660;51.258;-2.200;2024-02-14T08:03:48;100325.66;;;12.69;64.62
82887;BME280;72660;51.258;-2.200;2024-02-14T08:06:14;100332.90;;;13.23;63.16
82887;BME280;72660;51.258;-2.200;2024-02-14T08:08:38;100331.07;;;13.49;62.20
82887;BME280;72660;51.258;-2.200;2024-02-14T08:11:04;100324.24;;;13.31;62.30
82887;BME280;72660;51.258;-2.200;2024-02-14T08:13:29;100314.51;;;12.85;62.70
82887;BME280;72660;51.258;-2.200;2024-02-14T08:15:54;100315.68;;;13.27;62.42
82887;BME280;72660;51.258;-2.200;2024-02-14T08:18:19;100317.44;;;13.21;62.33
82887;BME280;72660;51.258;-2.200;2024-02-14T08:20:44;100320.59;;;12.91;62.93
82887;BME280;72660;51.258;-2.200;2024-02-14T08:23:10;100326.46;;;12.73;63.40
82887;BME280;72660;51.258;-2.200;2024-02-14T08:25:35;100320.61;;;12.81;63.42
82887;BME280;72660;51.258;-2.200;2024-02-14T08:28:00;100323.28;;;12.74;63.36
82887;BME280;72660;51.258;-2.200;2024-02-14T08:30:26;100329.24;;;13.34;62.07
82887;BME280;72660;51.258;-2.200;2024-02-14T08:32:51;100339.39;;;12.92;62.76
82887;BME280;72660;51.258;-2.200;2024-02-14T08:35:16;100350.26;;;13.11;62.36
82887;BME280;72660;51.258;-2.200;2024-02-14T08:37:41;100343.52;;;12.72;63.06
82887;BME280;72660;51.258;-2.200;2024-02-14T08:40:08;100353.79;;;13.15;62.43
82887;BME280;72660;51.258;-2.200;2024-02-14T08:42:32;100356.10;;;13.14;62.45
82887;BME280;72660;51.258;-2.200;2024-02-14T08:44:57;100364.29;;;13.51;62.24
82887;BME280;72660;51.258;-2.200;2024-02-14T08:47:22;100360.78;;;13.65;62.07
82887;BME280;72660;51.258;-2.200;2024-02-14T08:49:48;100366.73;;;12.93;63.09
82887;BME280;72660;51.258;-2.200;2024-02-14T08:52:13;100360.40;;;12.56;63.59
82887;BME280;72660;51.258;-2.200;2024-02-14T08:54:38;100353.71;;;12.57;64.15
82887;BME280;72660;51.258;-2.200;2024-02-14T08:57:04;100339.09;;;12.47;64.77
82887;BME280;72660;51.258;-2.200;2024-02-14T08:59:29;100346.11;;;12.72;63.98
82887;BME280;72660;51.258;-2.200;2024-02-14T09:01:55;100344.29;;;13.68;61.57
82887;BME280;72660;51.258;-2.200;2024-02-14T09:04:20;100352.28;;;13.77;60.80
82887;BME280;72660;51.258;-2.200;2024-02-14T09:06:45;100356.80;;;13.55;61.20
82887;BME280;72660;51.258;-2.200;2024-02-14T09:09:10;100364.33;;;13.68;61.00
82887;BME280;72660;51.258;-2.200;2024-02-14T09:11:36;100361.19;;;13.72;61.08
82887;BME280;72660;51.258;-2.200;2024-02-14T09:14:01;100363.39;;;13.55;61.47
82887;BME280;72660;51.258;-2.200;2024-02-14T09:16:27;100367.82;;;13.83;61.30
82887;BME280;72660;51.258;-2.200;2024-02-14T09:18:52;100368.89;;;14.14;60.30
82887;BME280;72660;51.258;-2.200;2024-02-14T09:21:17;100377.03;;;13.42;60.80
82887;BME280;72660;51.258;-2.200;2024-02-14T09:23:43;100382.94;;;13.48;61.29
82887;BME280;72660;51.258;-2.200;2024-02-14T09:26:08;100396.10;;;14.37;60.18
82887;BME280;72660;51.258;-2.200;2024-02-14T09:28:33;100390.49;;;13.54;60.82
82887;BME280;72660;51.258;-2.200;2024-02-14T09:30:58;100392.39;;;13.73;60.37
82887;BME280;72660;51.258;-2.200;2024-02-14T09:33:24;100385.84;;;14.40;59.53
82887;BME280;72660;51.258;-2.200;2024-02-14T09:35:50;100391.79;;;14.29;59.69
82887;BME280;72660;51.258;-2.200;2024-02-14T09:38:14;100395.16;;;14.18;59.38
82887;BME280;72660;51.258;-2.200;2024-02-14T09:40:40;100393.22;;;14.03;59.69
82887;BME280;72660;51.258;-2.200;2024-02-14T09:43:11;100395.91;;;14.88;58.07
82887;BME280;72660;51.258;-2.200;2024-02-14T09:45:30;100390.48;;;14.86;57.43
82887;BME280;72660;51.258;-2.200;2024-02-14T09:47:56;100397.58;;;14.70;58.15
82887;BME280;72660;51.258;-2.200;2024-02-14T09:50:21;100406.21;;;14.33;58.92
82887;BME280;72660;51.258;-2.200;2024-02-14T09:52:47;100403.81;;;14.65;57.95
82887;BME280;72660;51.258;-2.200;2024-02-14T09:55:11;100407.09;;;14.62;58.40
82887;BME280;72660;51.258;-2.200;2024-02-14T09:57:40;100413.23;;;15.03;57.75
82887;BME280;72660;51.258;-2.200;2024-02-14T10:00:02;100416.50;;;14.14;59.13
82887;BME280;72660;51.258;-2.200;2024-02-14T10:02:27;100415.67;;;14.25;58.88
82887;BME280;72660;51.258;-2.200;2024-02-14T10:04:52;100419.25;;;14.66;58.38
82887;BME280;72660;51.258;-2.200;2024-02-14T10:07:17;100414.61;;;14.85;58.00
82887;BME280;72660;51.258;-2.200;2024-02-14T10:09:43;100420.40;;;14.71;57.90
82887;BME280;72660;51.258;-2.200;2024-02-14T10:12:08;100418.07;;;14.95;57.09
82887;BME280;72660;51.258;-2.200;2024-02-14T10:14:33;100417.43;;;15.60;56.08
82887;BME280;72660;51.258;-2.200;2024-02-14T10:16:58;100414.71;;;15.33;56.10
82887;BME280;72660;51.258;-2.200;2024-02-14T10:19:23;100417.99;;;14.64;57.22
82887;BME280;72660;51.258;-2.200;2024-02-14T10:21:57;100413.73;;;14.62;57.79
82887;BME280;72660;51.258;-2.200;2024-02-14T10:24:14;100413.54;;;14.82;57.22
82887;BME280;72660;51.258;-2.200;2024-02-14T10:26:39;100419.06;;;15.15;56.90
82887;BME280;72660;51.258;-2.200;2024-02-14T10:29:06;100424.40;;;15.05;57.40
82887;BME280;72660;51.258;-2.200;2024-02-14T10:31:30;100431.30;;;14.93;57.29
82887;BME280;72660;51.258;-2.200;2024-02-14T10:33:56;100436.05;;;15.08;56.93
82887;BME280;72660;51.258;-2.200;2024-02-14T10:36:21;100435.07;;;15.16;57.31
82887;BME280;72660;51.258;-2.200;2024-02-14T10:38:46;100441.56;;;15.19;56.83
82887;BME280;72660;51.258;-2.200;2024-02-14T10:41:11;100437.92;;;15.54;55.89
82887;BME280;72660;51.258;-2.200;2024-02-14T10:43:36;100431.47;;;14.44;57.76
82887;BME280;72660;51.258;-2.200;2024-02-14T10:46:07;100434.76;;;14.95;57.61
82887;BME280;72660;51.258;-2.200;2024-02-14T10:48:28;100431.66;;;15.16;57.26
82887;BME280;72660;51.258;-2.200;2024-02-14T10:50:52;100435.01;;;15.28;56.18
82887;BME280;72660;51.258;-2.200;2024-02-14T10:53:17;100429.06;;;15.86;55.63
82887;BME280;72660;51.258;-2.200;2024-02-14T10:55:47;100430.10;;;16.01;55.36
82887;BME280;72660;51.258;-2.200;2024-02-14T10:58:10;100431.17;;;15.85;54.82
82887;BME280;72660;51.258;-2.200;2024-02-14T11:00:33;100433.51;;;16.13;54.40
82887;BME280;72660;51.258;-2.200;2024-02-14T11:02:59;100435.11;;;15.77;55.18
82887;BME280;72660;51.258;-2.200;2024-02-14T11:05:24;100438.22;;;16.49;54.02
82887;BME280;72660;51.258;-2.200;2024-02-14T11:07:50;100445.50;;;16.00;54.58
82887;BME280;72660;51.258;-2.200;2024-02-14T11:10:16;100454.25;;;15.74;54.96
82887;BME280;72660;51.258;-2.200;2024-02-14T11:12:40;100448.11;;;16.19;54.22
82887;BME280;72660;51.258;-2.200;2024-02-14T11:15:12;100451.39;;;15.96;54.55
82887;BME280;72660;51.258;-2.200;2024-02-14T11:17:31;100462.58;;;15.91;54.58
82887;BME280;72660;51.258;-2.200;2024-02-14T11:19:56;100464.46;;;15.38;55.21
82887;BME280;72660;51.258;-2.200;2024-02-14T11:22:21;100464.19;;;15.83;54.53
82887;BME280;72660;51.258;-2.200;2024-02-14T11:24:47;100460.84;;;15.75;54.73
82887;BME280;72660;51.258;-2.200;2024-02-14T11:27:12;100459.91;;;16.23;53.98
82887;BME280;72660;51.258;-2.200;2024-02-14T11:29:39;100462.64;;;15.59;54.66
82887;BME280;72660;51.258;-2.200;2024-02-14T11:32:02;100468.09;;;15.63;54.58
82887;BME280;72660;51.258;-2.200;2024-02-14T11:34:27;100466.06;;;16.36;53.54
82887;BME280;72660;51.258;-2.200;2024-02-14T11:36:52;100470.08;;;15.75;54.86
82887;BME280;72660;51.258;-2.200;2024-02-14T11:39:18;100468.48;;;16.38;53.76
82887;BME280;72660;51.258;-2.200;2024-02-14T11:41:43;100470.20;;;15.51;54.98
82887;BME280;72660;51.258;-2.200;2024-02-14T11:44:08;100459.48;;;16.45;54.44
82887;BME280;72660;51.258;-2.200;2024-02-14T11:46:34;100458.03;;;15.29;55.37
82887;BME280;72660;51.258;-2.200;2024-02-14T11:48:59;100457.41;;;15.96;54.40
82887;BME280;72660;51.258;-2.200;2024-02-14T11:51:24;100462.32;;;15.94;54.79
82887;BME280;72660;51.258;-2.200;2024-02-14T11:53:49;100472.51;;;14.98;56.57
82887;BME280;72660;51.258;-2.200;2024-02-14T11:56:14;100466.90;;;15.32;56.43
82887;BME280;72660;51.258;-2.200;2024-02-14T11:58:39;100466.21;;;15.51;56.26
82887;BME280;72660;51.258;-2.200;2024-02-14T12:01:05;100452.61;;;15.90;55.42
82887;BME280;72660;51.258;-2.200;2024-02-14T12:03:30;100449.27;;;15.77;55.10
82887;BME280;72660;51.258;-2.200;2024-02-14T12:05:56;100442.71;;;16.23;54.02
82887;BME280;72660;51.258;-2.200;2024-02-14T12:08:21;100437.63;;;16.14;54.26
82887;BME280;72660;51.258;-2.200;2024-02-14T12:10:46;100442.39;;;15.72;55.02
82887;BME280;72660;51.258;-2.200;2024-02-14T12:13:11;100437.57;;;16.21;54.02
82887;BME280;72660;51.258;-2.200;2024-02-14T12:15:39;100448.04;;;16.07;54.56
82887;BME280;72660;51.258;-2.200;2024-02-14T12:18:03;100454.65;;;15.77;54.79
82887;BME280;72660;51.258;-2.200;2024-02-14T12:20:27;100465.41;;;16.18;54.64
82887;BME280;72660;51.258;-2.200;2024-02-14T12:22:52;100474.13;;;15.63;54.61
82887;BME280;72660;51.258;-2.200;2024-02-14T12:25:18;100468.46;;;16.23;54.12
82887;BME280;72660;51.258;-2.200;2024-02-14T12:27:50;100479.59;;;15.31;55.81
82887;BME280;72660;51.258;-2.200;2024-02-14T12:30:09;100465.75;;;15.96;55.12